sensor_id;sensor_type;location;lat;lon;timestamp;pressure;altitude;pressure_sealevel;temperature
27826;BMP280;15077;49.704;9.908;2023-07-28T00:02:08;97392.28;;;22.35
27826;BMP280;15077;49.704;9.908;2023-07-28T00:04:35;97391.47;;;22.35
27826;BMP280;15077;49.704;9.908;2023-07-28T00:07:05;97383.88;;;22.33
27826;BMP280;15077;49.704;9.908;2023-07-28T00:09:31;97393.38;;;22.33
27826;BMP280;15077;49.704;9.908;2023-07-28T00:11:58;97390.94;;;22.31
27826;BMP280;15077;49.704;9.908;2023-07-28T00:14:26;97387.56;;;22.31
27826;BMP280;15077;49.704;9.908;2023-07-28T00:16:53;97384.19;;;22.30
27826;BMP280;15077;49.704;9.908;2023-07-28T00:19:22;97374.66;;;22.31
27826;BMP280;15077;49.704;9.908;2023-07-28T00:21:49;97371.44;;;22.29
27826;BMP280;15077;49.704;9.908;2023-07-28T00:24:17;97371.44;;;22.29
27826;BMP280;15077;49.704;9.908;2023-07-28T00:26:43;97363.16;;;22.25
27826;BMP280;15077;49.704;9.908;2023-07-28T00:29:09;97363.16;;;22.25
27826;BMP280;15077;49.704;9.908;2023-07-28T00:31:35;97367.50;;;22.25
27826;BMP280;15077;49.704;9.908;2023-07-28T00:34:02;97365.72;;;22.25
27826;BMP280;15077;49.704;9.908;2023-07-28T00:36:29;97362.34;;;22.25
27826;BMP280;15077;49.704;9.908;2023-07-28T00:38:56;97364.94;;;22.25
27826;BMP280;15077;49.704;9.908;2023-07-28T00:41:21;97356.38;;;22.24
27826;BMP280;15077;49.704;9.908;2023-07-28T00:43:52;97354.59;;;22.25
27826;BMP280;15077;49.704;9.908;2023-07-28T00:46:19;97349.75;;;22.22
27826;BMP280;15077;49.704;9.908;2023-07-28T00:48:45;97353.97;;;22.23
27826;BMP280;15077;49.704;9.908;2023-07-28T00:51:11;97350.53;;;22.22
27826;BMP280;15077;49.704;9.908;2023-07-28T00:53:38;97339.53;;;22.20
27826;BMP280;15077;49.704;9.908;2023-07-28T00:56:05;97354.38;;;22.18
27826;BMP280;15077;49.704;9.908;2023-07-28T00:58:31;97348.38;;;22.18
27826;BMP280;15077;49.704;9.908;2023-07-28T01:00:57;97350.31;;;22.16
27826;BMP280;15077;49.704;9.908;2023-07-28T01:03:26;97341.63;;;22.17
27826;BMP280;15077;49.704;9.908;2023-07-28T01:06:57;97349.81;;;22.12
27826;BMP280;15077;49.704;9.908;2023-07-28T01:09:05;97344.50;;;22.14
27826;BMP280;15077;49.704;9.908;2023-07-28T01:11:35;97341.94;;;22.14
27826;BMP280;15077;49.704;9.908;2023-07-28T01:14:00;97351.13;;;22.16
27826;BMP280;15077;49.704;9.908;2023-07-28T01:16:26;97351.94;;;22.17
27826;BMP280;15077;49.704;9.908;2023-07-28T01:18:52;97356.28;;;22.16
27826;BMP280;15077;49.704;9.908;2023-07-28T01:21:28;97354.69;;;22.15
27826;BMP280;15077;49.704;9.908;2023-07-28T01:27:18;97347.34;;;22.11
27826;BMP280;15077;49.704;9.908;2023-07-28T01:29:45;97349.00;;;22.12
27826;BMP280;15077;49.704;9.908;2023-07-28T01:32:11;97347.25;;;22.12
27826;BMP280;15077;49.704;9.908;2023-07-28T01:34:37;97342.88;;;22.13
27826;BMP280;15077;49.704;9.908;2023-07-28T01:37:03;97340.28;;;22.13
27826;BMP280;15077;49.704;9.908;2023-07-28T01:39:29;97352.25;;;22.14
27826;BMP280;15077;49.704;9.908;2023-07-28T01:41:55;97344.34;;;22.15
27826;BMP280;15077;49.704;9.908;2023-07-28T01:44:21;97350.31;;;22.16
27826;BMP280;15077;49.704;9.908;2023-07-28T01:46:46;97348.53;;;22.16
27826;BMP280;15077;49.704;9.908;2023-07-28T01:49:12;97337.56;;;22.14
27826;BMP280;15077;49.704;9.908;2023-07-28T01:51:38;97350.31;;;22.16
27826;BMP280;15077;49.704;9.908;2023-07-28T01:54:04;97353.84;;;22.15
27826;BMP280;15077;49.704;9.908;2023-07-28T01:56:30;97352.25;;;22.14
27826;BMP280;15077;49.704;9.908;2023-07-28T01:58:55;97349.53;;;22.15
27826;BMP280;15077;49.704;9.908;2023-07-28T02:01:23;97346.09;;;22.15
27826;BMP280;15077;49.704;9.908;2023-07-28T02:03:49;97353.84;;;22.15
27826;BMP280;15077;49.704;9.908;2023-07-28T02:06:15;97352.25;;;22.14
27826;BMP280;15077;49.704;9.908;2023-07-28T02:08:40;97340.28;;;22.13
27826;BMP280;15077;49.704;9.908;2023-07-28T02:11:06;97348.03;;;22.13
27826;BMP280;15077;49.704;9.908;2023-07-28T02:13:32;97345.47;;;22.13
27826;BMP280;15077;49.704;9.908;2023-07-28T02:15:58;97345.47;;;22.13
27826;BMP280;15077;49.704;9.908;2023-07-28T02:18:24;97336.09;;;22.12
27826;BMP280;15077;49.704;9.908;2023-07-28T02:20:49;97343.97;;;22.10
27826;BMP280;15077;49.704;9.908;2023-07-28T02:23:15;97343.97;;;22.10
27826;BMP280;15077;49.704;9.908;2023-07-28T02:25:41;97347.34;;;22.11
27826;BMP280;15077;49.704;9.908;2023-07-28T02:28:10;97346.41;;;22.12
27826;BMP280;15077;49.704;9.908;2023-07-28T02:30:36;97343.81;;;22.12
27826;BMP280;15077;49.704;9.908;2023-07-28T02:33:02;97334.34;;;22.12
27826;BMP280;15077;49.704;9.908;2023-07-28T02:35:28;97343.81;;;22.12
27826;BMP280;15077;49.704;9.908;2023-07-28T02:37:54;97338.50;;;22.13
27826;BMP280;15077;49.704;9.908;2023-07-28T02:40:19;97346.25;;;22.13
27826;BMP280;15077;49.704;9.908;2023-07-28T02:42:45;97344.66;;;22.12
27826;BMP280;15077;49.704;9.908;2023-07-28T02:45:11;97351.56;;;22.12
27826;BMP280;15077;49.704;9.908;2023-07-28T02:47:37;97355.78;;;22.13
27826;BMP280;15077;49.704;9.908;2023-07-28T02:50:04;97360.13;;;22.12
27826;BMP280;15077;49.704;9.908;2023-07-28T02:52:30;97354.16;;;22.12
27826;BMP280;15077;49.704;9.908;2023-07-28T02:54:55;97347.34;;;22.11
27826;BMP280;15077;49.704;9.908;2023-07-28T02:57:21;97355.78;;;22.13
27826;BMP280;15077;49.704;9.908;2023-07-28T02:59:47;97347.09;;;22.14
27826;BMP280;15077;49.704;9.908;2023-07-28T03:02:13;97353.06;;;22.14
27826;BMP280;15077;49.704;9.908;2023-07-28T03:04:39;97353.84;;;22.15
27826;BMP280;15077;49.704;9.908;2023-07-28T03:07:05;97355.47;;;22.16
27826;BMP280;15077;49.704;9.908;2023-07-28T03:09:31;97357.13;;;22.17
27826;BMP280;15077;49.704;9.908;2023-07-28T03:11:57;97350.31;;;22.16
27826;BMP280;15077;49.704;9.908;2023-07-28T03:14:22;97355.47;;;22.16
27826;BMP280;15077;49.704;9.908;2023-07-28T03:16:48;97357.25;;;22.15
27826;BMP280;15077;49.704;9.908;2023-07-28T03:19:14;97352.25;;;22.14
27826;BMP280;15077;49.704;9.908;2023-07-28T03:21:40;97350.63;;;22.13
27826;BMP280;15077;49.704;9.908;2023-07-28T03:24:08;97344.50;;;22.14
27826;BMP280;15077;49.704;9.908;2023-07-28T03:26:34;97354.97;;;22.12
27826;BMP280;15077;49.704;9.908;2023-07-28T03:29:00;97352.41;;;22.12
27826;BMP280;15077;49.704;9.908;2023-07-28T03:31:26;97360.13;;;22.12
27826;BMP280;15077;49.704;9.908;2023-07-28T03:33:51;97355.78;;;22.13
27826;BMP280;15077;49.704;9.908;2023-07-28T03:36:17;97355.78;;;22.13
27826;BMP280;15077;49.704;9.908;2023-07-28T03:38:44;97363.53;;;22.13
27826;BMP280;15077;49.704;9.908;2023-07-28T03:41:10;97360.63;;;22.16
27826;BMP280;15077;49.704;9.908;2023-07-28T03:43:36;97365.81;;;22.16
27826;BMP280;15077;49.704;9.908;2023-07-28T03:46:02;97364.69;;;22.18
27826;BMP280;15077;49.704;9.908;2023-07-28T03:48:28;97362.91;;;22.19
27826;BMP280;15077;49.704;9.908;2023-07-28T03:50:54;97353.41;;;22.19
27826;BMP280;15077;49.704;9.908;2023-07-28T03:53:20;97357.03;;;22.26
27826;BMP280;15077;49.704;9.908;2023-07-28T03:55:49;97361.09;;;22.29
27826;BMP280;15077;49.704;9.908;2023-07-28T03:58:15;97355.94;;;22.29
27826;BMP280;15077;49.704;9.908;2023-07-28T04:00:40;97351.06;;;22.26
27826;BMP280;15077;49.704;9.908;2023-07-28T04:03:06;97353.66;;;22.26
27826;BMP280;15077;49.704;9.908;2023-07-28T04:05:32;97349.28;;;22.26
27826;BMP280;15077;49.704;9.908;2023-07-28T04:07:58;97355.94;;;22.29
27826;BMP280;15077;49.704;9.908;2023-07-28T04:10:23;97362.69;;;22.30
27826;BMP280;15077;49.704;9.908;2023-07-28T04:12:49;97361.75;;;22.31
27826;BMP280;15077;49.704;9.908;2023-07-28T04:15:15;97360.94;;;22.30
27826;BMP280;15077;49.704;9.908;2023-07-28T04:17:40;97366.25;;;22.29
27826;BMP280;15077;49.704;9.908;2023-07-28T04:20:07;97358.06;;;22.33
27826;BMP280;15077;49.704;9.908;2023-07-28T04:22:36;97369.03;;;22.35
27826;BMP280;15077;49.704;9.908;2023-07-28T04:25:04;97362.53;;;22.31
27826;BMP280;15077;49.704;9.908;2023-07-28T04:27:29;97357.53;;;22.30
27826;BMP280;15077;49.704;9.908;2023-07-28T04:29:55;97368.84;;;22.29
27826;BMP280;15077;49.704;9.908;2023-07-28T04:32:21;97358.81;;;22.26
27826;BMP280;15077;49.704;9.908;2023-07-28T04:34:46;97358.97;;;22.24
27826;BMP280;15077;49.704;9.908;2023-07-28T04:37:12;97358.13;;;22.24
27826;BMP280;15077;49.704;9.908;2023-07-28T04:39:38;97358.13;;;22.24
27826;BMP280;15077;49.704;9.908;2023-07-28T04:42:04;97349.44;;;22.25
27826;BMP280;15077;49.704;9.908;2023-07-28T04:44:30;97356.25;;;22.26
27826;BMP280;15077;49.704;9.908;2023-07-28T04:46:55;97359.78;;;22.25
27826;BMP280;15077;49.704;9.908;2023-07-28T04:49:21;97362.19;;;22.26
27826;BMP280;15077;49.704;9.908;2023-07-28T04:51:47;97362.84;;;22.28
27826;BMP280;15077;49.704;9.908;2023-07-28T04:54:12;97362.69;;;22.30
27826;BMP280;15077;49.704;9.908;2023-07-28T04:56:38;97373.72;;;22.32
27826;BMP280;15077;49.704;9.908;2023-07-28T04:59:04;97366.75;;;22.32
27826;BMP280;15077;49.704;9.908;2023-07-28T05:01:33;97367.56;;;22.33
27826;BMP280;15077;49.704;9.908;2023-07-28T05:03:59;97376.94;;;22.34
27826;BMP280;15077;49.704;9.908;2023-07-28T05:06:24;97370.00;;;22.34
27826;BMP280;15077;49.704;9.908;2023-07-28T05:08:53;97375.16;;;22.34
27826;BMP280;15077;49.704;9.908;2023-07-28T05:11:19;97382.75;;;22.36
27826;BMP280;15077;49.704;9.908;2023-07-28T05:13:44;97377.59;;;22.36
27826;BMP280;15077;49.704;9.908;2023-07-28T05:16:10;97370.81;;;22.35
27826;BMP280;15077;49.704;9.908;2023-07-28T05:18:36;97374.06;;;22.37
27826;BMP280;15077;49.704;9.908;2023-07-28T05:21:02;97375.69;;;22.38
27826;BMP280;15077;49.704;9.908;2023-07-28T05:23:28;97376.34;;;22.40
27826;BMP280;15077;49.704;9.908;2023-07-28T05:25:54;97377.28;;;22.39
27826;BMP280;15077;49.704;9.908;2023-07-28T05:28:19;97390.88;;;22.41
27826;BMP280;15077;49.704;9.908;2023-07-28T05:30:45;97388.28;;;22.41
27826;BMP280;15077;49.704;9.908;2023-07-28T05:33:11;97397.47;;;22.43
27826;BMP280;15077;49.704;9.908;2023-07-28T05:35:37;97399.91;;;22.44
27826;BMP280;15077;49.704;9.908;2023-07-28T05:38:05;97403.34;;;22.45
27826;BMP280;15077;49.704;9.908;2023-07-28T05:40:31;97402.50;;;22.44
27826;BMP280;15077;49.704;9.908;2023-07-28T05:42:57;97405.75;;;22.46
27826;BMP280;15077;49.704;9.908;2023-07-28T05:45:23;97405.75;;;22.46
27826;BMP280;15077;49.704;9.908;2023-07-28T05:47:48;97409.94;;;22.47
27826;BMP280;15077;49.704;9.908;2023-07-28T05:50:14;97411.56;;;22.48
27826;BMP280;15077;49.704;9.908;2023-07-28T05:52:40;97416.75;;;22.48
27826;BMP280;15077;49.704;9.908;2023-07-28T05:55:06;97411.72;;;22.47
27826;BMP280;15077;49.704;9.908;2023-07-28T05:57:32;97425.28;;;22.49
27826;BMP280;15077;49.704;9.908;2023-07-28T05:59:58;97420.13;;;22.49
27826;BMP280;15077;49.704;9.908;2023-07-28T06:02:24;97423.53;;;22.49
27826;BMP280;15077;49.704;9.908;2023-07-28T06:04:49;97417.38;;;22.50
27826;BMP280;15077;49.704;9.908;2023-07-28T06:07:15;97424.84;;;22.53
27826;BMP280;15077;49.704;9.908;2023-07-28T06:09:41;97417.91;;;22.54
27826;BMP280;15077;49.704;9.908;2023-07-28T06:12:10;97412.59;;;22.55
27826;BMP280;15077;49.704;9.908;2023-07-28T06:14:35;97427.13;;;22.56
27826;BMP280;15077;49.704;9.908;2023-07-28T06:17:01;97409.88;;;22.57
27826;BMP280;15077;49.704;9.908;2023-07-28T06:19:27;97414.56;;;22.61
27826;BMP280;15077;49.704;9.908;2023-07-28T06:21:53;97409.09;;;22.64
27826;BMP280;15077;49.704;9.908;2023-07-28T06:24:20;97423.50;;;22.67
27826;BMP280;15077;49.704;9.908;2023-07-28T06:26:45;97414.47;;;22.71
27826;BMP280;15077;49.704;9.908;2023-07-28T06:29:11;97420.97;;;22.75
27826;BMP280;15077;49.704;9.908;2023-07-28T06:31:37;97407.09;;;22.76
27826;BMP280;15077;49.704;9.908;2023-07-28T06:34:03;97417.75;;;22.81
27826;BMP280;15077;49.704;9.908;2023-07-28T06:36:29;97421.16;;;22.81
27826;BMP280;15077;49.704;9.908;2023-07-28T06:38:54;97427.00;;;22.83
27826;BMP280;15077;49.704;9.908;2023-07-28T06:41:21;97426.00;;;22.84
27826;BMP280;15077;49.704;9.908;2023-07-28T06:43:47;97440.25;;;22.88
27826;BMP280;15077;49.704;9.908;2023-07-28T06:46:16;97434.94;;;22.90
27826;BMP280;15077;49.704;9.908;2023-07-28T06:48:41;97440.59;;;22.93
27826;BMP280;15077;49.704;9.908;2023-07-28T06:51:10;97438.72;;;22.95
27826;BMP280;15077;49.704;9.908;2023-07-28T06:53:36;97439.38;;;22.97
27826;BMP280;15077;49.704;9.908;2023-07-28T06:56:01;97439.56;;;23.03
27826;BMP280;15077;49.704;9.908;2023-07-28T06:58:27;97441.84;;;23.06
27826;BMP280;15077;49.704;9.908;2023-07-28T07:00:53;97443.31;;;23.09
27826;BMP280;15077;49.704;9.908;2023-07-28T07:03:21;97449.78;;;23.13
27826;BMP280;15077;49.704;9.908;2023-07-28T07:05:48;97451.28;;;23.15
27826;BMP280;15077;49.704;9.908;2023-07-28T07:08:14;97451.78;;;23.19
27826;BMP280;15077;49.704;9.908;2023-07-28T07:10:40;97448.88;;;23.22
27826;BMP280;15077;49.704;9.908;2023-07-28T07:13:05;97453.72;;;23.25
27826;BMP280;15077;49.704;9.908;2023-07-28T07:15:34;97464.41;;;23.30
27826;BMP280;15077;49.704;9.908;2023-07-28T07:18:01;97465.09;;;23.32
27826;BMP280;15077;49.704;9.908;2023-07-28T07:20:26;97453.44;;;23.36
27826;BMP280;15077;49.704;9.908;2023-07-28T07:22:52;97459.13;;;23.39
27826;BMP280;15077;49.704;9.908;2023-07-28T07:25:18;97466.44;;;23.43
27826;BMP280;15077;49.704;9.908;2023-07-28T07:27:44;97469.66;;;23.45
27826;BMP280;15077;49.704;9.908;2023-07-28T07:30:11;97461.59;;;23.48
27826;BMP280;15077;49.704;9.908;2023-07-28T07:32:37;97463.88;;;23.51
27826;BMP280;15077;49.704;9.908;2023-07-28T07:35:03;97461.63;;;23.56
27826;BMP280;15077;49.704;9.908;2023-07-28T07:37:29;97468.41;;;23.57
27826;BMP280;15077;49.704;9.908;2023-07-28T07:39:57;97470.25;;;23.65
27826;BMP280;15077;49.704;9.908;2023-07-28T07:42:23;97470.91;;;23.67
27826;BMP280;15077;49.704;9.908;2023-07-28T07:44:49;97482.72;;;23.69
27826;BMP280;15077;49.704;9.908;2023-07-28T07:47:16;97478.22;;;23.71
27826;BMP280;15077;49.704;9.908;2023-07-28T07:49:42;97485.97;;;23.71
27826;BMP280;15077;49.704;9.908;2023-07-28T07:52:08;97484.03;;;23.73
27826;BMP280;15077;49.704;9.908;2023-07-28T07:54:37;97488.25;;;23.74
27826;BMP280;15077;49.704;9.908;2023-07-28T07:57:04;97487.25;;;23.75
27826;BMP280;15077;49.704;9.908;2023-07-28T07:59:30;97486.31;;;23.76
27826;BMP280;15077;49.704;9.908;2023-07-28T08:01:58;97493.09;;;23.77
27826;BMP280;15077;49.704;9.908;2023-07-28T08:04:26;97500.56;;;23.80
27826;BMP280;15077;49.704;9.908;2023-07-28T08:06:53;97503.00;;;23.82
27826;BMP280;15077;49.704;9.908;2023-07-28T08:09:19;97506.38;;;23.90
27826;BMP280;15077;49.704;9.908;2023-07-28T08:11:45;97503.66;;;23.91
27826;BMP280;15077;49.704;9.908;2023-07-28T08:14:11;97512.88;;;23.94
27826;BMP280;15077;49.704;9.908;2023-07-28T08:16:36;97505.13;;;23.94
27826;BMP280;15077;49.704;9.908;2023-07-28T08:19:02;97508.50;;;23.94
27826;BMP280;15077;49.704;9.908;2023-07-28T08:21:28;97512.72;;;23.95
27826;BMP280;15077;49.704;9.908;2023-07-28T08:23:54;97505.78;;;23.96
27826;BMP280;15077;49.704;9.908;2023-07-28T08:26:20;97517.75;;;23.97
27826;BMP280;15077;49.704;9.908;2023-07-28T08:28:45;97522.13;;;23.96
27826;BMP280;15077;49.704;9.908;2023-07-28T08:31:11;97516.94;;;23.96
27826;BMP280;15077;49.704;9.908;2023-07-28T08:33:37;97508.38;;;23.96
27826;BMP280;15077;49.704;9.908;2023-07-28T08:36:03;97506.59;;;23.96
27826;BMP280;15077;49.704;9.908;2023-07-28T08:38:29;97514.19;;;23.98
27826;BMP280;15077;49.704;9.908;2023-07-28T08:40:56;97515.81;;;23.99
27826;BMP280;15077;49.704;9.908;2023-07-28T08:43:24;97519.06;;;24.01
27826;BMP280;15077;49.704;9.908;2023-07-28T08:45:52;97517.94;;;24.03
27826;BMP280;15077;49.704;9.908;2023-07-28T08:48:19;97521.16;;;24.05
27826;BMP280;15077;49.704;9.908;2023-07-28T08:50:45;97529.41;;;24.09
27826;BMP280;15077;49.704;9.908;2023-07-28T08:53:11;97526.50;;;24.12
27826;BMP280;15077;49.704;9.908;2023-07-28T08:55:37;97531.53;;;24.13
27826;BMP280;15077;49.704;9.908;2023-07-28T08:58:19;97534.97;;;24.14
27826;BMP280;15077;49.704;9.908;2023-07-28T09:00:47;97538.44;;;23.97
27826;BMP280;15077;49.704;9.908;2023-07-28T09:03:16;97544.63;;;24.12
27826;BMP280;15077;49.704;9.908;2023-07-28T09:05:43;97540.78;;;24.16
27826;BMP280;15077;49.704;9.908;2023-07-28T09:08:13;97546.44;;;24.19
27826;BMP280;15077;49.704;9.908;2023-07-28T09:11:02;97545.63;;;24.19
27826;BMP280;15077;49.704;9.908;2023-07-28T09:13:40;97545.97;;;24.24
27826;BMP280;15077;49.704;9.908;2023-07-28T09:16:20;97546.31;;;24.29
27826;BMP280;15077;49.704;9.908;2023-07-28T09:18:46;97550.06;;;24.34
27826;BMP280;15077;49.704;9.908;2023-07-28T09:21:22;97559.13;;;24.38
27826;BMP280;15077;49.704;9.908;2023-07-28T09:23:48;97556.06;;;24.42
27826;BMP280;15077;49.704;9.908;2023-07-28T09:26:15;97554.78;;;24.46
27826;BMP280;15077;49.704;9.908;2023-07-28T09:28:42;97552.84;;;24.48
27826;BMP280;15077;49.704;9.908;2023-07-28T09:31:08;97551.56;;;24.52
27826;BMP280;15077;49.704;9.908;2023-07-28T09:33:37;97553.84;;;24.55
27826;BMP280;15077;49.704;9.908;2023-07-28T09:36:14;97558.53;;;24.60
27826;BMP280;15077;49.704;9.908;2023-07-28T09:38:43;97553.03;;;24.63
27826;BMP280;15077;49.704;9.908;2023-07-28T09:41:10;97554.19;;;24.68
27826;BMP280;15077;49.704;9.908;2023-07-28T09:43:38;97550.63;;;24.77
27826;BMP280;15077;49.704;9.908;2023-07-28T09:46:07;97550.59;;;24.85
27826;BMP280;15077;49.704;9.908;2023-07-28T09:48:37;97552.53;;;24.91
27826;BMP280;15077;49.704;9.908;2023-07-28T09:51:19;97556.91;;;24.98
27826;BMP280;15077;49.704;9.908;2023-07-28T09:53:56;97539.94;;;25.04
27826;BMP280;15077;49.704;9.908;2023-07-28T09:56:28;97549.16;;;25.14
27826;BMP280;15077;49.704;9.908;2023-07-28T09:58:59;97542.19;;;25.23
27826;BMP280;15077;49.704;9.908;2023-07-28T10:01:28;97545.72;;;25.30
27826;BMP280;15077;49.704;9.908;2023-07-28T10:03:53;97544.09;;;25.37
27826;BMP280;15077;49.704;9.908;2023-07-28T10:06:20;97553.81;;;25.42
27826;BMP280;15077;49.704;9.908;2023-07-28T10:08:49;97548.94;;;25.47
27826;BMP280;15077;49.704;9.908;2023-07-28T10:11:17;97550.03;;;25.53
27826;BMP280;15077;49.704;9.908;2023-07-28T10:13:44;97551.34;;;25.57
27826;BMP280;15077;49.704;9.908;2023-07-28T10:16:12;97557.00;;;25.60
27826;BMP280;15077;49.704;9.908;2023-07-28T10:18:40;97551.47;;;25.63
27826;BMP280;15077;49.704;9.908;2023-07-28T10:21:16;97565.13;;;25.65
27826;BMP280;15077;49.704;9.908;2023-07-28T10:23:44;97561.53;;;25.66
27826;BMP280;15077;49.704;9.908;2023-07-28T10:26:10;97557.97;;;25.67
27826;BMP280;15077;49.704;9.908;2023-07-28T10:28:38;97554.25;;;25.70
27826;BMP280;15077;49.704;9.908;2023-07-28T10:31:08;97557.94;;;25.75
27826;BMP280;15077;49.704;9.908;2023-07-28T10:33:38;97550.16;;;25.83
27826;BMP280;15077;49.704;9.908;2023-07-28T10:36:33;97554.38;;;25.84
27826;BMP280;15077;49.704;9.908;2023-07-28T10:39:23;97564.09;;;25.90
27826;BMP280;15077;49.704;9.908;2023-07-28T10:42:08;97567.94;;;25.94
27826;BMP280;15077;49.704;9.908;2023-07-28T10:44:34;97570.69;;;26.00
27826;BMP280;15077;49.704;9.908;2023-07-28T10:47:01;97564.50;;;26.01
27826;BMP280;15077;49.704;9.908;2023-07-28T10:49:28;97572.13;;;26.03
27826;BMP280;15077;49.704;9.908;2023-07-28T10:51:54;97570.50;;;26.02
27826;BMP280;15077;49.704;9.908;2023-07-28T10:54:20;97575.88;;;26.00
27826;BMP280;15077;49.704;9.908;2023-07-28T10:56:48;97567.44;;;25.98
27826;BMP280;15077;49.704;9.908;2023-07-28T10:59:14;97567.44;;;25.98
27826;BMP280;15077;49.704;9.908;2023-07-28T11:01:41;97568.25;;;25.99
27826;BMP280;15077;49.704;9.908;2023-07-28T11:04:10;97562.06;;;26.00
27826;BMP280;15077;49.704;9.908;2023-07-28T11:06:43;97570.69;;;26.00
27826;BMP280;15077;49.704;9.908;2023-07-28T11:09:10;97564.66;;;26.00
27826;BMP280;15077;49.704;9.908;2023-07-28T11:11:40;97573.28;;;26.00
27826;BMP280;15077;49.704;9.908;2023-07-28T11:14:07;97573.44;;;25.99
27826;BMP280;15077;49.704;9.908;2023-07-28T11:16:37;97569.22;;;25.98
27826;BMP280;15077;49.704;9.908;2023-07-28T11:19:08;97566.63;;;25.98
27826;BMP280;15077;49.704;9.908;2023-07-28T11:21:37;97574.41;;;25.98
27826;BMP280;15077;49.704;9.908;2023-07-28T11:24:04;97570.69;;;26.00
27826;BMP280;15077;49.704;9.908;2023-07-28T11:26:30;97566.91;;;26.03
27826;BMP280;15077;49.704;9.908;2023-07-28T11:28:56;97559.63;;;26.06
27826;BMP280;15077;49.704;9.908;2023-07-28T11:31:26;97562.97;;;26.15
27826;BMP280;15077;49.704;9.908;2023-07-28T11:33:52;97569.28;;;26.20
27826;BMP280;15077;49.704;9.908;2023-07-28T11:36:30;97569.56;;;26.25
27826;BMP280;15077;49.704;9.908;2023-07-28T11:39:00;97567.31;;;26.30
27826;BMP280;15077;49.704;9.908;2023-07-28T11:41:26;97571.81;;;26.36
27826;BMP280;15077;49.704;9.908;2023-07-28T11:43:53;97566.75;;;26.42
27826;BMP280;15077;49.704;9.908;2023-07-28T11:46:40;97567.06;;;26.47
27826;BMP280;15077;49.704;9.908;2023-07-28T11:49:18;97558.22;;;26.56
27826;BMP280;15077;49.704;9.908;2023-07-28T11:51:50;97561.53;;;26.65
27826;BMP280;15077;49.704;9.908;2023-07-28T11:54:21;97556.47;;;26.71
27826;BMP280;15077;49.704;9.908;2023-07-28T11:56:49;97573.00;;;26.78
27826;BMP280;15077;49.704;9.908;2023-07-28T11:59:17;97563.25;;;26.80
27826;BMP280;15077;49.704;9.908;2023-07-28T12:01:59;97571.66;;;26.82
27826;BMP280;15077;49.704;9.908;2023-07-28T12:04:30;97577.97;;;26.88
27826;BMP280;15077;49.704;9.908;2023-07-28T12:07:09;97577.97;;;26.88
27826;BMP280;15077;49.704;9.908;2023-07-28T12:12:16;97578.63;;;26.89
27826;BMP280;15077;49.704;9.908;2023-07-28T12:14:43;97576.03;;;26.89
27826;BMP280;15077;49.704;9.908;2023-07-28T12:17:20;97603.31;;;26.93
27826;BMP280;15077;49.704;9.908;2023-07-28T12:20:09;97595.53;;;26.86
27826;BMP280;15077;49.704;9.908;2023-07-28T12:22:45;97600.56;;;26.87
27826;BMP280;15077;49.704;9.908;2023-07-28T12:25:12;97598.66;;;26.81
27826;BMP280;15077;49.704;9.908;2023-07-28T12:27:38;97589.50;;;26.85
27826;BMP280;15077;49.704;9.908;2023-07-28T12:30:05;97586.75;;;26.87
27826;BMP280;15077;49.704;9.908;2023-07-28T12:32:32;97588.19;;;26.89
27826;BMP280;15077;49.704;9.908;2023-07-28T12:34:58;97581.69;;;26.93
27826;BMP280;15077;49.704;9.908;2023-07-28T12:37:24;97579.72;;;26.95
27826;BMP280;15077;49.704;9.908;2023-07-28T12:39:49;97579.19;;;26.99
27826;BMP280;15077;49.704;9.908;2023-07-28T12:42:15;97565.50;;;27.05
27826;BMP280;15077;49.704;9.908;2023-07-28T12:44:42;97573.38;;;27.12
27826;BMP280;15077;49.704;9.908;2023-07-28T12:47:08;97581.75;;;27.22
27826;BMP280;15077;49.704;9.908;2023-07-28T12:49:34;97580.25;;;27.27
27826;BMP280;15077;49.704;9.908;2023-07-28T12:52:03;97585.53;;;27.34
27826;BMP280;15077;49.704;9.908;2023-07-28T12:54:29;97585.84;;;27.38
27826;BMP280;15077;49.704;9.908;2023-07-28T12:56:55;97581.25;;;27.40
27826;BMP280;15077;49.704;9.908;2023-07-28T12:59:21;97578.13;;;27.45
27826;BMP280;15077;49.704;9.908;2023-07-28T13:01:47;97580.19;;;27.49
27826;BMP280;15077;49.704;9.908;2023-07-28T13:04:13;97577.88;;;27.54
27826;BMP280;15077;49.704;9.908;2023-07-28T13:06:39;97580.78;;;27.59
27826;BMP280;15077;49.704;9.908;2023-07-28T13:09:07;97583.28;;;27.67
27826;BMP280;15077;49.704;9.908;2023-07-28T13:11:36;97584.56;;;27.71
27826;BMP280;15077;49.704;9.908;2023-07-28T13:14:02;97587.78;;;27.73
27826;BMP280;15077;49.704;9.908;2023-07-28T13:16:28;97583.22;;;27.75
27826;BMP280;15077;49.704;9.908;2023-07-28T13:18:53;97579.41;;;27.78
27826;BMP280;15077;49.704;9.908;2023-07-28T13:21:19;97583.66;;;27.79
27826;BMP280;15077;49.704;9.908;2023-07-28T13:23:45;97581.41;;;27.76
27826;BMP280;15077;49.704;9.908;2023-07-28T13:26:11;97580.78;;;27.74
27826;BMP280;15077;49.704;9.908;2023-07-28T13:28:37;97575.75;;;27.72
27826;BMP280;15077;49.704;9.908;2023-07-28T13:31:03;97573.16;;;27.72
27826;BMP280;15077;49.704;9.908;2023-07-28T13:33:30;97577.72;;;27.70
27826;BMP280;15077;49.704;9.908;2023-07-28T13:35:56;97583.22;;;27.75
27826;BMP280;15077;49.704;9.908;2023-07-28T13:38:22;97583.22;;;27.75
27826;BMP280;15077;49.704;9.908;2023-07-28T13:40:48;97584.38;;;27.73
27826;BMP280;15077;49.704;9.908;2023-07-28T13:43:13;97586.53;;;27.69
27826;BMP280;15077;49.704;9.908;2023-07-28T13:45:39;97585.44;;;27.64
27826;BMP280;15077;49.704;9.908;2023-07-28T13:48:05;97578.19;;;27.59
27826;BMP280;15077;49.704;9.908;2023-07-28T13:50:31;97583.75;;;27.56
27826;BMP280;15077;49.704;9.908;2023-07-28T13:52:56;97574.47;;;27.54
27826;BMP280;15077;49.704;9.908;2023-07-28T13:55:22;97574.03;;;27.50
27826;BMP280;15077;49.704;9.908;2023-07-28T13:57:48;97572.56;;;27.48
27826;BMP280;15077;49.704;9.908;2023-07-28T14:00:14;97578.91;;;27.45
27826;BMP280;15077;49.704;9.908;2023-07-28T14:02:41;97568.50;;;27.45
27826;BMP280;15077;49.704;9.908;2023-07-28T14:05:07;97578.91;;;27.45
27826;BMP280;15077;49.704;9.908;2023-07-28T14:07:33;97580.56;;;27.46
27826;BMP280;15077;49.704;9.908;2023-07-28T14:10:01;97578.56;;;27.48
27826;BMP280;15077;49.704;9.908;2023-07-28T14:12:26;97578.25;;;27.51
27826;BMP280;15077;49.704;9.908;2023-07-28T14:14:52;97588.28;;;27.54
27826;BMP280;15077;49.704;9.908;2023-07-28T14:17:18;97582.72;;;27.57